<?xml version="1.0" encoding="UTF-8" standalone="no" ?>
<gpx xmlns="http://www.topografix.com/GPX/1/1" xmlns:xsi="http://www.w3.org/2001/XMLSchema-instance" xsi:schemaLocation="http://www.topografix.com/GPX/1/1 http://www.topografix.com/GPX/1/1/gpx.xsd" version="1.1" creator="VisuGPX - https://www.visugpx.com">
  <metadata>
    <name>14375163-parcours d'essai</name>
  </metadata>
  <wpt lat="45.32428" lon="4.78059">
    <ele>139</ele>
    <name><![CDATA[OpenRunner_1646755308.jpg]]></name>
  </wpt>
  <wpt lat="45.32404" lon="4.77957">
    <ele>139</ele>
    <name><![CDATA[OpenRunner_1646755390.jpg]]></name>
  </wpt>
  <wpt lat="45.32315" lon="4.77522">
    <ele>137</ele>
    <name><![CDATA[OpenRunner_1646755672.jpg]]></name>
  </wpt>
  <wpt lat="45.32148" lon="4.77424">
    <ele>136.3</ele>
    <name><![CDATA[OpenRunner_1646755916.jpg]]></name>
  </wpt>
  <wpt lat="45.32299" lon="4.77783">
    <ele>138</ele>
    <name><![CDATA[OpenRunner_1646756180.jpg]]></name>
  </wpt>
  <trk>
    <name><![CDATA[14375163-parcours d'essai]]></name>
    <extensions>
      <line xmlns="http://www.topografix.com/GPX/gpx_style/0/2">
        <color>0000FF</color>
        <width>4</width>
      </line>
    </extensions>
    <trkseg>
      <trkpt lat="45.32295" lon="4.77781">
        <ele>136</ele>
        <time>2022-03-08T16:57:08Z</time>
      </trkpt>
      <trkpt lat="45.3236" lon="4.77923">
        <ele>137</ele>
        <time>2022-03-08T16:59:47Z</time>
      </trkpt>
      <trkpt lat="45.32423" lon="4.78071">
        <ele>139</ele>
        <time>2022-03-08T17:02:29Z</time>
      </trkpt>
      <trkpt lat="45.32427" lon="4.78111">
        <ele>139</ele>
        <time>2022-03-08T17:03:07Z</time>
      </trkpt>
      <trkpt lat="45.32452" lon="4.78145">
        <ele>138</ele>
        <time>2022-03-08T17:03:53Z</time>
      </trkpt>
      <trkpt lat="45.32422" lon="4.78003">
        <ele>139</ele>
        <time>2022-03-08T17:06:12Z</time>
      </trkpt>
      <trkpt lat="45.32375" lon="4.77799">
        <ele>137</ele>
        <time>2022-03-08T17:09:34Z</time>
      </trkpt>
      <trkpt lat="45.32328" lon="4.77582">
        <ele>136</ele>
        <time>2022-03-08T17:13:07Z</time>
      </trkpt>
      <trkpt lat="45.32301" lon="4.77448">
        <ele>138</ele>
        <time>2022-03-08T17:15:18Z</time>
      </trkpt>
      <trkpt lat="45.32285" lon="4.7737">
        <ele>138</ele>
        <time>2022-03-08T17:16:34Z</time>
      </trkpt>
      <trkpt lat="45.32196" lon="4.77395">
        <ele>137</ele>
        <time>2022-03-08T17:18:35Z</time>
      </trkpt>
      <trkpt lat="45.32147" lon="4.77409">
        <ele>137</ele>
        <time>2022-03-08T17:19:42Z</time>
      </trkpt>
      <trkpt lat="45.32141" lon="4.77417">
        <ele>137</ele>
        <time>2022-03-08T17:19:53Z</time>
      </trkpt>
      <trkpt lat="45.32173" lon="4.77489">
        <ele>137</ele>
        <time>2022-03-08T17:21:13Z</time>
      </trkpt>
      <trkpt lat="45.32208" lon="4.77571">
        <ele>137</ele>
        <time>2022-03-08T17:22:43Z</time>
      </trkpt>
      <trkpt lat="45.32245" lon="4.77657">
        <ele>137</ele>
        <time>2022-03-08T17:24:17Z</time>
      </trkpt>
      <trkpt lat="45.32264" lon="4.77704">
        <ele>136</ele>
        <time>2022-03-08T17:25:08Z</time>
      </trkpt>
      <trkpt lat="45.32295" lon="4.77781">
        <ele>136</ele>
        <time>2022-03-08T17:26:31Z</time>
      </trkpt>
    </trkseg>
  </trk>
</gpx>